createdAt,value
2019-03-24T00:00:57.534Z,11.05
2019-03-24T00:03:26.024Z,10.86
2019-03-24T00:05:54.547Z,10.79
2019-03-24T00:08:24.102Z,11.00
2019-03-24T00:10:52.608Z,10.77
2019-03-24T00:13:21.105Z,11.08
2019-03-24T00:15:49.623Z,10.95
2019-03-24T00:18:18.108Z,10.62
2019-03-24T00:20:46.863Z,10.71
2019-03-24T00:23:15.346Z,10.24
2019-03-24T00:25:43.835Z,10.74
2019-03-24T00:28:12.353Z,10.62
2019-03-24T00:30:40.841Z,10.60
2019-03-24T00:33:09.344Z,10.29
2019-03-24T00:35:39.158Z,10.22
2019-03-24T00:38:07.672Z,9.97
2019-03-24T00:40:36.180Z,10.32
2019-03-24T00:43:04.922Z,9.99
2019-03-24T00:45:37.010Z,9.65
2019-03-24T00:48:03.679Z,9.99
2019-03-24T00:50:32.165Z,9.82
2019-03-24T00:53:00.713Z,9.43
2019-03-24T00:55:29.200Z,9.81
2019-03-24T00:57:57.851Z,9.77
2019-03-24T01:00:43.928Z,9.42
2019-03-24T01:03:12.485Z,9.69
2019-03-24T01:05:41.247Z,9.45
2019-03-24T01:08:09.964Z,9.33
2019-03-24T01:10:38.596Z,9.29
2019-03-24T01:13:07.147Z,9.73
2019-03-24T01:15:35.729Z,9.35
2019-03-24T01:18:04.456Z,8.90
2019-03-24T01:20:32.973Z,9.22
2019-03-24T01:23:01.465Z,9.31
2019-03-24T01:25:29.965Z,9.35
2019-03-24T01:27:58.444Z,9.02
2019-03-24T01:30:27.035Z,9.22
2019-03-24T01:32:55.549Z,9.11
2019-03-24T01:35:24.032Z,9.19
2019-03-24T01:37:52.524Z,9.18
2019-03-24T01:40:21.006Z,8.79
2019-03-24T01:42:49.498Z,8.48
2019-03-24T01:45:18.012Z,8.75
2019-03-24T01:47:46.491Z,8.74
2019-03-24T01:50:15.140Z,8.93
2019-03-24T01:52:43.724Z,8.68
2019-03-24T01:55:12.410Z,9.11
2019-03-24T01:57:40.889Z,9.16
2019-03-24T02:00:10.040Z,9.03
2019-03-24T02:02:38.532Z,9.11
2019-03-24T02:05:08.025Z,8.78
2019-03-24T02:07:36.625Z,9.04
2019-03-24T02:10:08.147Z,8.98
2019-03-24T02:12:36.743Z,9.01
2019-03-24T02:15:07.334Z,9.13
2019-03-24T02:17:35.885Z,9.19
2019-03-24T02:20:06.134Z,8.84
2019-03-24T02:22:34.616Z,9.05
2019-03-24T02:25:03.200Z,8.03
2019-03-24T02:27:31.696Z,8.06
2019-03-24T02:30:00.425Z,7.97
2019-03-24T02:32:29.246Z,7.93
2019-03-24T02:34:57.730Z,8.26
2019-03-24T02:37:26.229Z,8.34
2019-03-24T02:39:54.811Z,8.33
2019-03-24T02:42:23.293Z,7.69
2019-03-24T02:44:51.773Z,7.94
2019-03-24T02:47:20.272Z,8.24
2019-03-24T02:49:48.745Z,8.25
2019-03-24T02:52:17.265Z,7.84
2019-03-24T02:54:45.758Z,8.04
2019-03-24T02:57:14.262Z,7.95
2019-03-24T02:59:42.788Z,8.19
2019-03-24T03:02:11.341Z,8.37
2019-03-24T03:04:39.822Z,8.25
2019-03-24T03:07:08.322Z,8.62
2019-03-24T03:09:36.822Z,8.41
2019-03-24T03:12:05.456Z,8.19
2019-03-24T03:14:33.976Z,8.54
2019-03-24T03:17:02.456Z,7.91
2019-03-24T03:19:30.982Z,7.66
2019-03-24T03:21:59.672Z,8.65
2019-03-24T03:24:28.374Z,8.15
2019-03-24T03:26:56.851Z,9.01
2019-03-24T03:29:25.372Z,8.90
2019-03-24T03:31:54.085Z,8.38
2019-03-24T03:34:22.562Z,8.08
2019-03-24T03:36:51.158Z,8.36
2019-03-24T03:39:20.745Z,9.14
2019-03-24T03:41:49.245Z,9.35
2019-03-24T03:44:17.769Z,9.11
2019-03-24T03:46:52.674Z,9.02
2019-03-24T03:49:16.456Z,9.11
2019-03-24T03:51:44.949Z,9.16
2019-03-24T03:54:13.421Z,8.98
2019-03-24T03:56:41.918Z,9.30
2019-03-24T03:59:10.432Z,8.94
2019-03-24T04:01:38.946Z,9.20
2019-03-24T04:04:07.606Z,8.76
2019-03-24T04:06:36.123Z,8.44
2019-03-24T04:09:06.043Z,8.91
2019-03-24T04:11:34.535Z,8.62
2019-03-24T04:14:03.029Z,8.61
2019-03-24T04:16:31.531Z,9.11
2019-03-24T04:19:00.013Z,9.47
2019-03-24T04:21:28.524Z,9.70
2019-03-24T04:23:58.581Z,9.93
2019-03-24T04:26:27.083Z,9.72
2019-03-24T04:28:55.591Z,9.75
2019-03-24T04:31:24.156Z,9.73
2019-03-24T04:33:52.598Z,9.36
2019-03-24T04:36:21.083Z,9.55
2019-03-24T04:38:49.572Z,9.55
2019-03-24T04:41:18.197Z,8.95
2019-03-24T04:43:46.701Z,8.59
2019-03-24T04:46:15.181Z,9.27
2019-03-24T04:48:43.730Z,9.56
2019-03-24T04:51:12.212Z,9.20
2019-03-24T04:53:40.696Z,9.13
2019-03-24T04:56:09.294Z,9.08
2019-03-24T04:58:37.765Z,9.21
2019-03-24T05:01:06.333Z,9.02
2019-03-24T05:03:34.831Z,9.12
2019-03-24T05:06:03.482Z,8.96
2019-03-24T05:08:32.248Z,8.76
2019-03-24T05:11:00.744Z,8.81
2019-03-24T05:13:29.245Z,9.11
2019-03-24T05:15:57.726Z,9.19
2019-03-24T05:18:26.321Z,9.12
2019-03-24T05:20:54.835Z,9.37
2019-03-24T05:23:23.324Z,9.48
2019-03-24T05:25:52.113Z,9.75
2019-03-24T05:28:20.608Z,9.77
2019-03-24T05:30:49.122Z,9.69
2019-03-24T05:33:17.602Z,9.53
2019-03-24T05:35:46.115Z,9.62
2019-03-24T05:38:14.596Z,9.60
2019-03-24T05:40:43.113Z,9.80
2019-03-24T05:43:11.601Z,9.91
2019-03-24T05:45:40.098Z,9.85
2019-03-24T05:48:08.611Z,9.59
2019-03-24T05:50:37.118Z,9.84
2019-03-24T05:53:05.700Z,9.73
2019-03-24T05:55:34.183Z,9.47
2019-03-24T05:58:02.681Z,8.38
2019-03-24T06:00:31.168Z,8.50
2019-03-24T06:02:59.665Z,9.24
2019-03-24T06:05:28.171Z,8.59
2019-03-24T06:07:56.660Z,8.56
2019-03-24T06:10:25.169Z,7.71
2019-03-24T06:12:54.603Z,7.84
2019-03-24T06:15:23.130Z,7.25
2019-03-24T06:17:51.604Z,7.69
2019-03-24T06:20:20.166Z,8.19
2019-03-24T06:22:48.641Z,8.22
2019-03-24T06:25:17.238Z,8.05
2019-03-24T06:27:45.720Z,8.01
2019-03-24T06:30:14.702Z,7.49
2019-03-24T06:32:43.276Z,7.21
2019-03-24T06:35:11.819Z,7.14
2019-03-24T06:37:40.323Z,7.07
2019-03-24T06:40:09.344Z,6.90
2019-03-24T06:42:37.924Z,6.87
2019-03-24T06:45:08.662Z,7.26
2019-03-24T06:47:37.170Z,7.65
2019-03-24T06:50:07.499Z,7.10
2019-03-24T06:52:36.148Z,6.67
2019-03-24T06:55:04.965Z,6.81
2019-03-24T06:57:33.525Z,6.79
2019-03-24T07:00:02.000Z,6.74
2019-03-24T07:02:30.500Z,6.75
2019-03-24T07:04:59.348Z,6.83
2019-03-24T07:07:27.852Z,6.81
2019-03-24T07:09:56.343Z,7.03
2019-03-24T07:12:24.821Z,7.36
2019-03-24T07:14:53.334Z,7.68
2019-03-24T07:17:22.080Z,7.30
2019-03-24T07:19:50.599Z,7.02
2019-03-24T07:22:19.466Z,7.35
2019-03-24T07:24:47.952Z,7.32
2019-03-24T07:27:16.486Z,7.50
2019-03-24T07:29:44.959Z,7.85
2019-03-24T07:32:13.434Z,7.68
2019-03-24T07:34:41.951Z,7.62
2019-03-24T07:37:10.468Z,7.48
2019-03-24T07:39:38.957Z,7.63
2019-03-24T07:42:07.472Z,7.84
2019-03-24T07:44:35.958Z,8.15
2019-03-24T07:47:07.503Z,8.98
2019-03-24T07:49:36.087Z,8.27
2019-03-24T07:52:04.638Z,7.81
2019-03-24T07:54:33.148Z,7.73
2019-03-24T07:57:01.632Z,7.89
2019-03-24T07:59:30.119Z,8.49
2019-03-24T08:01:59.683Z,8.25
2019-03-24T08:04:28.160Z,8.90
2019-03-24T08:06:56.716Z,8.64
2019-03-24T08:09:25.231Z,8.35
2019-03-24T08:11:53.705Z,8.56
2019-03-24T08:14:22.223Z,8.59
2019-03-24T08:16:50.706Z,9.17
2019-03-24T08:19:19.198Z,8.24
2019-03-24T08:21:47.684Z,8.35
2019-03-24T08:24:16.202Z,8.56
2019-03-24T08:26:44.790Z,8.37
2019-03-24T08:29:13.297Z,8.40
2019-03-24T08:31:41.810Z,8.89
2019-03-24T08:34:10.288Z,8.50
2019-03-24T08:36:38.853Z,9.22
2019-03-24T08:39:07.438Z,10.08
2019-03-24T08:41:36.020Z,10.03
2019-03-24T08:44:04.635Z,9.57
2019-03-24T08:46:33.154Z,8.96
2019-03-24T08:49:01.650Z,8.42
2019-03-24T08:51:30.124Z,9.38
2019-03-24T08:53:59.628Z,10.11
2019-03-24T08:56:28.130Z,11.16
2019-03-24T08:58:56.625Z,12.17
2019-03-24T09:01:25.224Z,10.32
2019-03-24T09:03:53.715Z,10.28
2019-03-24T09:06:22.206Z,11.87
2019-03-24T09:08:50.718Z,13.08
2019-03-24T09:11:19.213Z,13.26
2019-03-24T09:13:47.726Z,12.88
2019-03-24T09:16:16.253Z,11.72
2019-03-24T09:18:52.633Z,12.12
2019-03-24T09:21:14.960Z,13.36
2019-03-24T09:23:43.444Z,11.68
2019-03-24T09:26:11.956Z,10.33
2019-03-24T09:28:40.439Z,11.60
2019-03-24T09:31:08.974Z,10.91
2019-03-24T09:33:37.491Z,10.14
2019-03-24T09:36:06.045Z,10.47
2019-03-24T09:38:34.623Z,10.70
2019-03-24T09:41:03.106Z,9.97
2019-03-24T09:43:31.629Z,10.28
2019-03-24T09:46:00.148Z,10.81
2019-03-24T09:48:28.673Z,10.97
2019-03-24T09:50:57.227Z,11.72
2019-03-24T09:53:25.709Z,13.18
2019-03-24T09:55:54.233Z,12.92
2019-03-24T09:58:22.718Z,13.86
2019-03-24T10:00:51.218Z,14.40
2019-03-24T10:03:19.702Z,13.46
2019-03-24T10:05:48.261Z,13.99
2019-03-24T10:08:16.757Z,14.52
2019-03-24T10:10:45.224Z,13.53
2019-03-24T10:13:13.713Z,12.99
2019-03-24T10:15:42.235Z,12.83
2019-03-24T10:18:10.798Z,12.71
2019-03-24T10:20:39.287Z,13.37
2019-03-24T10:23:07.785Z,13.20
2019-03-24T10:25:36.270Z,14.30
2019-03-24T10:28:04.787Z,11.95
2019-03-24T10:30:33.269Z,11.53
2019-03-24T10:33:01.779Z,12.14
2019-03-24T10:35:30.269Z,11.65
2019-03-24T10:37:58.793Z,12.15
2019-03-24T10:40:28.824Z,12.06
2019-03-24T10:42:57.695Z,12.19
2019-03-24T10:45:26.186Z,13.99
2019-03-24T10:47:56.309Z,13.58
2019-03-24T10:50:24.825Z,14.06
2019-03-24T10:52:53.321Z,13.23
2019-03-24T10:55:21.805Z,12.32
2019-03-24T10:57:51.332Z,12.72
2019-03-24T11:00:22.907Z,11.60
2019-03-24T11:02:51.404Z,11.38
2019-03-24T11:05:19.889Z,11.63
2019-03-24T11:07:48.413Z,13.31
2019-03-24T11:10:16.964Z,12.81
2019-03-24T11:12:45.478Z,12.68
2019-03-24T11:15:14.064Z,12.58
2019-03-24T11:17:42.575Z,12.07
2019-03-24T11:20:11.339Z,12.92
2019-03-24T11:22:39.818Z,13.65
2019-03-24T11:25:09.469Z,14.59
2019-03-24T11:27:38.248Z,15.04
2019-03-24T11:30:14.267Z,14.18
2019-03-24T11:32:42.993Z,14.86
2019-03-24T11:35:12.646Z,15.61
2019-03-24T11:37:41.293Z,14.42
2019-03-24T11:40:11.509Z,12.75
2019-03-24T11:42:40.100Z,11.91
2019-03-24T11:45:10.237Z,11.22
2019-03-24T11:47:38.736Z,12.39
2019-03-24T11:50:08.461Z,13.32
2019-03-24T11:52:37.300Z,12.69
2019-03-24T11:55:10.407Z,11.82
2019-03-24T11:57:40.597Z,12.75
2019-03-24T12:00:12.158Z,12.78
2019-03-24T12:02:40.877Z,13.54
2019-03-24T12:05:09.929Z,13.56
2019-03-24T12:07:38.410Z,13.42
2019-03-24T12:10:09.944Z,12.52
2019-03-24T12:12:38.461Z,13.48
2019-03-24T12:15:07.979Z,12.93
2019-03-24T12:17:36.573Z,11.87
2019-03-24T12:20:08.277Z,12.00
2019-03-24T12:22:36.902Z,13.02
2019-03-24T12:25:06.135Z,13.14
2019-03-24T12:27:35.293Z,14.06
2019-03-24T12:30:05.542Z,13.56
2019-03-24T12:32:34.041Z,13.32
2019-03-24T12:35:02.556Z,11.94
2019-03-24T12:37:31.070Z,12.47
2019-03-24T12:39:59.564Z,12.52
2019-03-24T12:42:28.149Z,12.77
2019-03-24T12:44:56.651Z,12.44
2019-03-24T12:47:25.128Z,13.55
2019-03-24T12:49:53.683Z,13.18
2019-03-24T12:52:22.144Z,12.25
2019-03-24T12:54:50.628Z,12.91
2019-03-24T12:57:19.124Z,12.78
2019-03-24T12:59:47.666Z,13.84
2019-03-24T13:02:16.183Z,14.33
2019-03-24T13:04:44.677Z,12.46
2019-03-24T13:07:13.178Z,12.08
2019-03-24T13:09:41.720Z,11.58
2019-03-24T13:12:10.243Z,11.64
2019-03-24T13:14:38.723Z,12.49
2019-03-24T13:17:07.220Z,12.76
2019-03-24T13:19:36.266Z,13.53
2019-03-24T13:22:05.040Z,13.82
2019-03-24T13:24:33.552Z,13.89
2019-03-24T13:27:02.119Z,13.91
2019-03-24T13:29:30.604Z,14.09
2019-03-24T13:32:00.743Z,14.18
2019-03-24T13:34:29.226Z,14.25
2019-03-24T13:36:57.711Z,14.11
2019-03-24T13:39:26.233Z,14.23
2019-03-24T13:41:54.803Z,14.08
2019-03-24T13:44:23.385Z,14.19
2019-03-24T13:46:51.916Z,14.42
2019-03-24T13:49:20.405Z,14.48
2019-03-24T13:51:48.895Z,14.40
2019-03-24T13:54:17.393Z,14.35
2019-03-24T13:56:45.897Z,14.57
2019-03-24T13:59:14.445Z,14.17
2019-03-24T14:01:43.036Z,13.98
2019-03-24T14:04:11.522Z,13.98
2019-03-24T14:06:40.184Z,13.94
2019-03-24T14:09:10.046Z,13.57
2019-03-24T14:11:40.646Z,13.74
2019-03-24T14:14:09.146Z,13.58
2019-03-24T14:16:37.667Z,13.72
2019-03-24T14:19:06.225Z,13.95
2019-03-24T14:21:34.755Z,13.93
2019-03-24T14:24:03.149Z,13.71
2019-03-24T14:26:31.655Z,13.67
2019-03-24T14:29:00.160Z,13.80
2019-03-24T14:31:28.669Z,14.09
2019-03-24T14:33:57.155Z,14.16
2019-03-24T14:36:25.471Z,14.16
2019-03-24T14:38:54.057Z,14.20
2019-03-24T14:41:22.542Z,13.08
2019-03-24T14:43:51.043Z,12.32
2019-03-24T14:46:19.581Z,13.10
2019-03-24T14:48:48.097Z,13.27
2019-03-24T14:51:16.748Z,13.41
2019-03-24T14:53:45.265Z,13.39
2019-03-24T14:56:13.749Z,13.30
2019-03-24T14:58:42.259Z,13.33
2019-03-24T15:01:10.741Z,13.32
2019-03-24T15:03:39.259Z,13.13
2019-03-24T15:06:07.814Z,13.37
2019-03-24T15:08:36.300Z,13.36
2019-03-24T15:11:04.904Z,13.63
2019-03-24T15:13:33.388Z,13.80
2019-03-24T15:16:01.890Z,13.54
2019-03-24T15:18:30.413Z,13.31
2019-03-24T15:21:05.608Z,13.31
2019-03-24T15:23:30.754Z,13.45
2019-03-24T15:25:59.256Z,13.64
2019-03-24T15:28:27.750Z,13.44
2019-03-24T15:30:56.266Z,13.28
2019-03-24T15:33:24.752Z,13.42
2019-03-24T15:35:53.234Z,13.30
2019-03-24T15:38:21.731Z,13.36
2019-03-24T15:40:50.230Z,13.29
2019-03-24T15:43:18.822Z,13.02
2019-03-24T15:45:47.309Z,12.98
2019-03-24T15:48:15.823Z,12.98
2019-03-24T15:50:44.348Z,12.38
2019-03-24T15:53:12.820Z,11.27
2019-03-24T15:55:41.341Z,11.90
2019-03-24T15:58:09.936Z,12.56
2019-03-24T16:00:47.706Z,12.69
2019-03-24T16:03:16.553Z,12.57
2019-03-24T16:05:45.168Z,12.42
2019-03-24T16:08:13.851Z,12.72
2019-03-24T16:10:42.406Z,12.75
2019-03-24T16:13:10.981Z,12.78
2019-03-24T16:15:39.470Z,12.85
2019-03-24T16:18:08.025Z,12.73
2019-03-24T16:20:36.541Z,12.74
2019-03-24T16:23:05.112Z,12.88
2019-03-24T16:25:33.621Z,13.08
2019-03-24T16:28:02.184Z,12.94
2019-03-24T16:30:30.683Z,12.92
2019-03-24T16:32:59.255Z,12.96
2019-03-24T16:35:27.774Z,12.73
2019-03-24T16:37:56.270Z,12.68
2019-03-24T16:40:24.857Z,12.87
2019-03-24T16:42:53.350Z,12.17
2019-03-24T16:45:21.874Z,12.22
2019-03-24T16:47:50.706Z,12.38
2019-03-24T16:50:19.278Z,12.40
2019-03-24T16:52:47.781Z,12.17
2019-03-24T16:55:16.372Z,12.26
2019-03-24T16:57:44.859Z,12.13
2019-03-24T17:00:14.019Z,11.98
2019-03-24T17:02:42.509Z,12.08
2019-03-24T17:05:11.369Z,12.19
2019-03-24T17:07:39.942Z,12.23
2019-03-24T17:10:08.878Z,12.25
2019-03-24T17:12:37.373Z,12.30
2019-03-24T17:15:09.484Z,12.26
2019-03-24T17:17:38.039Z,12.10
2019-03-24T17:20:09.780Z,11.80
2019-03-24T17:22:40.665Z,11.69
2019-03-24T17:25:09.607Z,11.87
2019-03-24T17:27:38.134Z,11.83
2019-03-24T17:30:14.718Z,12.06
2019-03-24T17:32:45.170Z,12.10
2019-03-24T17:35:16.359Z,11.98
2019-03-24T17:37:53.604Z,11.72
2019-03-24T17:40:26.788Z,11.47
2019-03-24T17:43:04.126Z,11.73
2019-03-24T17:45:40.369Z,12.02
2019-03-24T17:48:14.459Z,12.09
2019-03-24T17:50:43.111Z,11.77
2019-03-24T17:53:19.269Z,11.66
2019-03-24T17:55:47.840Z,11.69
2019-03-24T17:58:27.499Z,11.57
2019-03-24T18:01:06.093Z,11.81
2019-03-24T18:03:35.577Z,11.82
2019-03-24T18:06:04.089Z,11.84
2019-03-24T18:08:32.571Z,11.66
2019-03-24T18:11:01.406Z,11.84
2019-03-24T18:13:29.902Z,11.81
2019-03-24T18:15:58.482Z,11.55
2019-03-24T18:18:26.974Z,11.35
2019-03-24T18:20:55.478Z,11.35
2019-03-24T18:23:24.047Z,11.31
2019-03-24T18:25:52.540Z,11.36
2019-03-24T18:28:21.590Z,11.62
2019-03-24T18:30:50.116Z,11.42
2019-03-24T18:33:18.685Z,11.22
2019-03-24T18:35:47.257Z,11.40
2019-03-24T18:38:15.813Z,11.15
2019-03-24T18:40:44.415Z,11.17
2019-03-24T18:43:12.903Z,11.19
2019-03-24T18:45:41.548Z,11.23
2019-03-24T18:48:10.066Z,11.23
2019-03-24T18:50:40.873Z,11.14
2019-03-24T18:53:09.400Z,11.21
2019-03-24T18:55:37.884Z,11.25
2019-03-24T18:58:06.446Z,11.28
2019-03-24T19:00:35.039Z,11.03
2019-03-24T19:03:03.531Z,10.93
2019-03-24T19:05:32.084Z,10.91
2019-03-24T19:08:00.631Z,10.68
2019-03-24T19:10:29.121Z,10.52
2019-03-24T19:12:57.648Z,10.33
2019-03-24T19:15:26.202Z,10.47
2019-03-24T19:17:54.697Z,10.31
2019-03-24T19:20:23.195Z,10.08
2019-03-24T19:22:53.278Z,9.77
2019-03-24T19:25:21.778Z,10.13
2019-03-24T19:27:51.280Z,9.78
2019-03-24T19:30:22.849Z,10.10
2019-03-24T19:32:51.480Z,10.31
2019-03-24T19:35:20.011Z,10.31
2019-03-24T19:37:49.469Z,10.49
2019-03-24T19:40:29.110Z,10.56
2019-03-24T19:42:57.831Z,10.32
2019-03-24T19:45:27.839Z,10.23
2019-03-24T19:47:56.682Z,10.16
2019-03-24T19:50:25.802Z,9.90
2019-03-24T19:52:54.341Z,10.18
2019-03-24T19:55:22.828Z,10.46
2019-03-24T19:57:51.345Z,10.60
2019-03-24T20:00:19.975Z,10.81
2019-03-24T20:02:48.474Z,10.89
2019-03-24T20:05:16.980Z,10.77
2019-03-24T20:07:48.269Z,10.83
2019-03-24T20:10:16.078Z,10.76
2019-03-24T20:12:44.583Z,10.80
2019-03-24T20:15:14.821Z,11.00
2019-03-24T20:17:43.389Z,11.10
2019-03-24T20:20:12.110Z,10.72
2019-03-24T20:22:40.634Z,10.60
2019-03-24T20:27:58.428Z,10.54
2019-03-24T20:30:26.989Z,10.48
2019-03-24T20:32:55.497Z,10.41
2019-03-24T20:35:24.014Z,10.02
2019-03-24T20:37:52.524Z,10.03
2019-03-24T20:40:21.085Z,9.83
2019-03-24T20:42:49.577Z,9.87
2019-03-24T20:45:18.156Z,10.15
2019-03-24T20:47:46.736Z,10.38
2019-03-24T20:50:15.761Z,10.30
2019-03-24T20:52:44.260Z,10.23
2019-03-24T20:55:13.124Z,10.31
2019-03-24T20:57:41.681Z,10.37
2019-03-24T21:00:11.486Z,10.09
2019-03-24T21:02:39.979Z,10.10
2019-03-24T21:05:10.945Z,10.21
2019-03-24T21:07:38.854Z,9.73
2019-03-24T21:10:07.777Z,9.97
2019-03-24T21:12:36.568Z,9.68
2019-03-24T21:15:07.458Z,9.94
2019-03-24T21:17:36.128Z,10.19
2019-03-24T21:20:07.070Z,10.12
2019-03-24T21:22:35.641Z,10.43
2019-03-24T21:25:05.586Z,10.57
2019-03-24T21:27:34.077Z,10.48
2019-03-24T21:30:02.576Z,10.60
2019-03-24T21:32:31.058Z,10.23
2019-03-24T21:34:59.577Z,10.37
2019-03-24T21:37:28.076Z,10.54
2019-03-24T21:39:56.608Z,10.60
2019-03-24T21:42:25.095Z,10.59
2019-03-24T21:44:53.590Z,10.55
2019-03-24T21:47:22.120Z,10.51
2019-03-24T21:49:53.330Z,10.38
2019-03-24T21:52:21.954Z,10.18
2019-03-24T21:54:50.430Z,9.83
2019-03-24T21:57:18.932Z,10.11
2019-03-24T21:59:47.453Z,9.94
2019-03-24T22:02:15.989Z,10.09
2019-03-24T22:04:44.453Z,10.21
2019-03-24T22:07:12.970Z,10.21
2019-03-24T22:09:41.521Z,10.06
2019-03-24T22:12:10.002Z,9.72
2019-03-24T22:14:41.184Z,9.62
2019-03-24T22:17:09.686Z,9.59
2019-03-24T22:19:38.764Z,9.72
2019-03-24T22:22:07.347Z,9.72
2019-03-24T22:24:35.827Z,9.62
2019-03-24T22:27:04.360Z,9.62
2019-03-24T22:29:32.847Z,9.77
2019-03-24T22:32:01.323Z,9.73
2019-03-24T22:34:29.915Z,9.49
2019-03-24T22:36:58.394Z,9.42
2019-03-24T22:39:26.986Z,9.51
2019-03-24T22:41:55.460Z,9.54
2019-03-24T22:44:24.004Z,9.50
2019-03-24T22:46:52.491Z,9.43
2019-03-24T22:49:20.976Z,9.54
2019-03-24T22:51:49.490Z,9.60
2019-03-24T22:54:18.012Z,9.59
2019-03-24T22:56:46.596Z,9.42
2019-03-24T22:59:15.249Z,9.48
2019-03-24T23:01:43.851Z,9.53
2019-03-24T23:04:12.329Z,9.58
2019-03-24T23:06:40.977Z,9.27
2019-03-24T23:09:10.267Z,9.32
2019-03-24T23:11:38.780Z,9.52
2019-03-24T23:14:07.396Z,9.67
2019-03-24T23:16:36.053Z,9.78
2019-03-24T23:19:05.179Z,9.86
2019-03-24T23:21:33.737Z,9.65
2019-03-24T23:24:02.228Z,9.82
2019-03-24T23:26:30.736Z,9.92
2019-03-24T23:28:59.212Z,9.68
2019-03-24T23:31:27.825Z,9.75
2019-03-24T23:33:56.306Z,9.72
2019-03-24T23:36:24.813Z,9.98
2019-03-24T23:38:53.296Z,9.87
2019-03-24T23:41:21.783Z,9.88
2019-03-24T23:43:50.343Z,9.52
2019-03-24T23:46:18.857Z,9.63
2019-03-24T23:48:47.354Z,10.00
2019-03-24T23:51:16.285Z,9.78
2019-03-24T23:53:44.772Z,9.97
2019-03-24T23:56:13.291Z,10.05
2019-03-24T23:58:41.800Z,10.04
